sensor_id;sensor_type;location;lat;lon;timestamp;pressure;altitude;pressure_sealevel;temperature;humidity
67517;BME280;54359;59.124;37.910;2022-12-10T00:01:08;99819.31;;;-3.51;78.97
67517;BME280;54359;59.124;37.910;2022-12-10T00:03:35;99824.34;;;-3.51;79.08
67517;BME280;54359;59.124;37.910;2022-12-10T00:06:04;99818.41;;;-3.51;79.30
67517;BME280;54359;59.124;37.910;2022-12-10T00:08:30;99818.25;;;-3.54;79.27
67517;BME280;54359;59.124;37.910;2022-12-10T00:10:57;99820.75;;;-3.54;79.40
67517;BME280;54359;59.124;37.910;2022-12-10T00:13:23;99808.66;;;-3.60;79.57
67517;BME280;54359;59.124;37.910;2022-12-10T00:15:49;99807.88;;;-3.72;79.36
67517;BME280;54359;59.124;37.910;2022-12-10T00:18:14;99810.84;;;-3.78;79.21
67517;BME280;54359;59.124;37.910;2022-12-10T00:20:40;99807.94;;;-3.84;78.72
67517;BME280;54359;59.124;37.910;2022-12-10T00:23:06;99812.56;;;-3.90;79.32
67517;BME280;54359;59.124;37.910;2022-12-10T00:25:32;99816.84;;;-3.89;79.09
67517;BME280;54359;59.124;37.910;2022-12-10T00:27:58;99815.97;;;-3.90;79.23
67517;BME280;54359;59.124;37.910;2022-12-10T00:30:24;99802.81;;;-3.99;79.18
67517;BME280;54359;59.124;37.910;2022-12-10T00:32:50;99817.31;;;-3.95;79.52
67517;BME280;54359;59.124;37.910;2022-12-10T00:35:16;99812.75;;;-4.00;79.50
67517;BME280;54359;59.124;37.910;2022-12-10T00:37:42;99817.47;;;-4.05;79.57
67517;BME280;54359;59.124;37.910;2022-12-10T00:40:08;99809.66;;;-4.10;79.43
67517;BME280;54359;59.124;37.910;2022-12-10T00:42:36;99810.97;;;-4.15;79.62
67517;BME280;54359;59.124;37.910;2022-12-10T00:45:04;99802.41;;;-4.18;78.66
67517;BME280;54359;59.124;37.910;2022-12-10T00:47:30;99821.56;;;-4.19;79.05
67517;BME280;54359;59.124;37.910;2022-12-10T00:50:15;99820.81;;;-4.18;79.11
67517;BME280;54359;59.124;37.910;2022-12-10T00:52:41;99815.81;;;-4.18;79.80
67517;BME280;54359;59.124;37.910;2022-12-10T00:55:07;99819.19;;;-4.17;79.21
67517;BME280;54359;59.124;37.910;2022-12-10T00:57:33;99816.56;;;-4.19;78.87
67517;BME280;54359;59.124;37.910;2022-12-10T00:59:59;99817.44;;;-4.18;79.63
67517;BME280;54359;59.124;37.910;2022-12-10T01:02:25;99812.63;;;-4.15;79.31
67517;BME280;54359;59.124;37.910;2022-12-10T01:04:54;99813.69;;;-4.12;79.82
67517;BME280;54359;59.124;37.910;2022-12-10T01:07:20;99813.81;;;-4.10;79.53
67517;BME280;54359;59.124;37.910;2022-12-10T01:09:45;99814.66;;;-4.10;79.18
67517;BME280;54359;59.124;37.910;2022-12-10T01:12:13;99814.66;;;-4.10;79.24
67517;BME280;54359;59.124;37.910;2022-12-10T01:14:39;99817.06;;;-4.11;79.13
67517;BME280;54359;59.124;37.910;2022-12-10T01:17:05;99812.63;;;-4.15;78.88
67517;BME280;54359;59.124;37.910;2022-12-10T01:19:32;99811.47;;;-4.20;79.73
67517;BME280;54359;59.124;37.910;2022-12-10T01:22:01;99808.94;;;-4.20;79.92
67517;BME280;54359;59.124;37.910;2022-12-10T01:24:28;99816.78;;;-4.16;79.51
67517;BME280;54359;59.124;37.910;2022-12-10T01:26:55;99811.66;;;-4.17;79.74
67517;BME280;54359;59.124;37.910;2022-12-10T01:29:21;99812.31;;;-4.20;79.29
67517;BME280;54359;59.124;37.910;2022-12-10T01:31:51;99811.25;;;-4.23;79.30
67517;BME280;54359;59.124;37.910;2022-12-10T01:34:17;99813.22;;;-4.31;79.84
67517;BME280;54359;59.124;37.910;2022-12-10T01:36:45;99813.91;;;-4.34;79.19
67517;BME280;54359;59.124;37.910;2022-12-10T01:39:14;99812.25;;;-4.33;79.02
67517;BME280;54359;59.124;37.910;2022-12-10T01:41:54;99807.34;;;-4.32;79.35
67517;BME280;54359;59.124;37.910;2022-12-10T01:46:49;99815.25;;;-4.39;79.19
67517;BME280;54359;59.124;37.910;2022-12-10T01:49:19;99815.03;;;-4.42;79.30
67517;BME280;54359;59.124;37.910;2022-12-10T01:51:47;99816.38;;;-4.47;79.40
67517;BME280;54359;59.124;37.910;2022-12-10T01:54:18;99805.56;;;-4.46;79.17
67517;BME280;54359;59.124;37.910;2022-12-10T01:56:47;99804.69;;;-4.47;79.55
67517;BME280;54359;59.124;37.910;2022-12-10T01:59:15;99819.75;;;-4.47;79.47
67517;BME280;54359;59.124;37.910;2022-12-10T02:04:47;99811.94;;;-4.51;79.35
67517;BME280;54359;59.124;37.910;2022-12-10T02:07:25;99785.25;;;-4.62;79.24
67517;BME280;54359;59.124;37.910;2022-12-10T02:10:39;99805.38;;;-4.49;79.69
67517;BME280;54359;59.124;37.910;2022-12-10T02:12:53;99802.19;;;-4.47;79.96
67517;BME280;54359;59.124;37.910;2022-12-10T02:15:25;99796.41;;;-4.46;79.55
67517;BME280;54359;59.124;37.910;2022-12-10T02:17:56;99794.56;;;-4.48;79.61
67517;BME280;54359;59.124;37.910;2022-12-10T02:20:32;99789.66;;;-4.47;79.64
67517;BME280;54359;59.124;37.910;2022-12-10T02:23:16;99782.47;;;-4.54;80.00
67517;BME280;54359;59.124;37.910;2022-12-10T02:31:09;99779.00;;;-4.56;79.50
67517;BME280;54359;59.124;37.910;2022-12-10T02:33:38;99786.63;;;-4.54;79.76
67517;BME280;54359;59.124;37.910;2022-12-10T02:36:05;99765.84;;;-4.65;79.44
67517;BME280;54359;59.124;37.910;2022-12-10T02:38:36;99770.63;;;-4.68;79.37
67517;BME280;54359;59.124;37.910;2022-12-10T02:41:11;99776.97;;;-4.61;79.53
67517;BME280;54359;59.124;37.910;2022-12-10T02:43:39;99773.66;;;-4.60;79.59
67517;BME280;54359;59.124;37.910;2022-12-10T02:46:05;99776.19;;;-4.60;79.51
67517;BME280;54359;59.124;37.910;2022-12-10T02:48:33;99782.16;;;-4.58;79.68
67517;BME280;54359;59.124;37.910;2022-12-10T02:51:00;99777.03;;;-4.60;79.38
67517;BME280;54359;59.124;37.910;2022-12-10T02:53:26;99776.41;;;-4.57;79.78
67517;BME280;54359;59.124;37.910;2022-12-10T02:59:15;99790.41;;;-4.48;79.92
67517;BME280;54359;59.124;37.910;2022-12-10T03:04:56;99788.78;;;-4.47;79.79
67517;BME280;54359;59.124;37.910;2022-12-10T03:07:35;99773.31;;;-4.53;79.89
67517;BME280;54359;59.124;37.910;2022-12-10T03:10:30;99788.13;;;-4.45;79.97
67517;BME280;54359;59.124;37.910;2022-12-10T03:13:00;99781.34;;;-4.46;79.81
67517;BME280;54359;59.124;37.910;2022-12-10T03:15:30;99784.75;;;-4.45;79.69
67517;BME280;54359;59.124;37.910;2022-12-10T03:18:01;99777.97;;;-4.46;79.92
67517;BME280;54359;59.124;37.910;2022-12-10T03:20:29;99789.94;;;-4.42;79.97
67517;BME280;54359;59.124;37.910;2022-12-10T03:22:57;99789.94;;;-4.42;79.91
67517;BME280;54359;59.124;37.910;2022-12-10T03:25:26;99792.47;;;-4.42;79.34
67517;BME280;54359;59.124;37.910;2022-12-10T03:27:55;99787.75;;;-4.37;79.91
67517;BME280;54359;59.124;37.910;2022-12-10T03:30:23;99792.31;;;-4.32;79.52
67517;BME280;54359;59.124;37.910;2022-12-10T03:32:49;99794.81;;;-4.32;79.88
67517;BME280;54359;59.124;37.910;2022-12-10T03:35:17;99798.84;;;-4.34;79.61
67517;BME280;54359;59.124;37.910;2022-12-10T03:37:44;99802.91;;;-4.36;79.42
67517;BME280;54359;59.124;37.910;2022-12-10T03:40:11;99806.94;;;-4.38;80.04
67517;BME280;54359;59.124;37.910;2022-12-10T03:42:38;99807.91;;;-4.36;79.95
67517;BME280;54359;59.124;37.910;2022-12-10T03:45:05;99803.88;;;-4.34;79.96
67517;BME280;54359;59.124;37.910;2022-12-10T03:47:31;99805.72;;;-4.31;80.08
67517;BME280;54359;59.124;37.910;2022-12-10T03:49:57;99796.66;;;-4.29;80.24
67517;BME280;54359;59.124;37.910;2022-12-10T03:52:23;99795.22;;;-4.26;79.98
67517;BME280;54359;59.124;37.910;2022-12-10T03:54:49;99789.34;;;-4.26;80.47
67517;BME280;54359;59.124;37.910;2022-12-10T03:57:15;99794.88;;;-4.18;80.17
67517;BME280;54359;59.124;37.910;2022-12-10T03:59:41;99807.59;;;-4.15;80.24
67517;BME280;54359;59.124;37.910;2022-12-10T04:02:07;99792.34;;;-4.18;80.03
67517;BME280;54359;59.124;37.910;2022-12-10T04:04:33;99795.34;;;-4.11;80.21
67517;BME280;54359;59.124;37.910;2022-12-10T04:06:59;99787.75;;;-4.12;80.05
67517;BME280;54359;59.124;37.910;2022-12-10T04:09:24;99791.97;;;-4.11;79.96
67517;BME280;54359;59.124;37.910;2022-12-10T04:11:55;99795.84;;;-4.03;80.17
67517;BME280;54359;59.124;37.910;2022-12-10T04:14:22;99790.72;;;-4.05;79.84
67517;BME280;54359;59.124;37.910;2022-12-10T04:17:06;99795.16;;;-4.00;79.74
67517;BME280;54359;59.124;37.910;2022-12-10T04:19:32;99786.59;;;-4.04;79.95
67517;BME280;54359;59.124;37.910;2022-12-10T04:21:58;99787.75;;;-3.99;80.54
67517;BME280;54359;59.124;37.910;2022-12-10T04:24:43;99791.03;;;-4.00;80.32
67517;BME280;54359;59.124;37.910;2022-12-10T04:27:30;99797.03;;;-3.98;80.16
67517;BME280;54359;59.124;37.910;2022-12-10T04:29:57;99801.94;;;-3.99;79.91
67517;BME280;54359;59.124;37.910;2022-12-10T04:32:25;99794.19;;;-4.02;80.26
67517;BME280;54359;59.124;37.910;2022-12-10T04:34:51;99791.69;;;-4.02;80.10
67517;BME280;54359;59.124;37.910;2022-12-10T04:37:18;99792.66;;;-4.00;80.00
67517;BME280;54359;59.124;37.910;2022-12-10T04:39:44;99796.13;;;-3.98;80.08
67517;BME280;54359;59.124;37.910;2022-12-10T04:42:10;99797.22;;;-3.95;80.15
67517;BME280;54359;59.124;37.910;2022-12-10T04:44:36;99792.31;;;-3.93;80.19
67517;BME280;54359;59.124;37.910;2022-12-10T04:47:04;99796.53;;;-3.92;80.51
67517;BME280;54359;59.124;37.910;2022-12-10T04:49:30;99802.53;;;-3.90;80.32
67517;BME280;54359;59.124;37.910;2022-12-10T04:51:57;99793.84;;;-3.95;80.01
67517;BME280;54359;59.124;37.910;2022-12-10T04:54:24;99794.13;;;-3.91;79.78
67517;BME280;54359;59.124;37.910;2022-12-10T04:56:50;99797.63;;;-3.89;80.25
67517;BME280;54359;59.124;37.910;2022-12-10T04:59:16;99800.13;;;-3.89;79.91
67517;BME280;54359;59.124;37.910;2022-12-10T05:01:42;99805.38;;;-3.86;80.10
67517;BME280;54359;59.124;37.910;2022-12-10T05:04:10;99799.56;;;-3.85;80.06
67517;BME280;54359;59.124;37.910;2022-12-10T05:06:37;99789.97;;;-3.90;79.90
67517;BME280;54359;59.124;37.910;2022-12-10T05:09:03;99796.94;;;-3.86;80.44
67517;BME280;54359;59.124;37.910;2022-12-10T05:11:30;99806.50;;;-3.80;80.95
67517;BME280;54359;59.124;37.910;2022-12-10T05:13:58;99793.84;;;-3.82;80.11
67517;BME280;54359;59.124;37.910;2022-12-10T05:16:26;99805.75;;;-3.79;80.20
67517;BME280;54359;59.124;37.910;2022-12-10T05:18:53;99794.94;;;-3.78;80.13
67517;BME280;54359;59.124;37.910;2022-12-10T05:21:21;99793.84;;;-3.82;80.92
67517;BME280;54359;59.124;37.910;2022-12-10T05:23:49;99801.88;;;-3.74;80.57
67517;BME280;54359;59.124;37.910;2022-12-10T05:26:21;99802.75;;;-3.74;80.59
67517;BME280;54359;59.124;37.910;2022-12-10T05:28:56;99805.38;;;-3.72;80.16
67517;BME280;54359;59.124;37.910;2022-12-10T05:31:27;99801.03;;;-3.75;80.60
67517;BME280;54359;59.124;37.910;2022-12-10T05:33:54;99805.94;;;-3.76;80.21
67517;BME280;54359;59.124;37.910;2022-12-10T05:36:23;99812.63;;;-3.77;80.39
67517;BME280;54359;59.124;37.910;2022-12-10T05:38:50;99819.28;;;-3.77;80.60
67517;BME280;54359;59.124;37.910;2022-12-10T05:41:22;99814.03;;;-3.80;80.47
67517;BME280;54359;59.124;37.910;2022-12-10T05:43:48;99813.19;;;-3.81;80.18
67517;BME280;54359;59.124;37.910;2022-12-10T05:46:20;99818.09;;;-3.82;80.18
67517;BME280;54359;59.124;37.910;2022-12-10T05:48:46;99815.47;;;-3.84;79.96
67517;BME280;54359;59.124;37.910;2022-12-10T05:51:16;99807.31;;;-3.81;80.37
67517;BME280;54359;59.124;37.910;2022-12-10T05:53:42;99787.06;;;-3.96;80.49
67517;BME280;54359;59.124;37.910;2022-12-10T05:56:11;99811.53;;;-3.80;80.20
67517;BME280;54359;59.124;37.910;2022-12-10T05:58:40;99819.94;;;-3.80;80.44
67517;BME280;54359;59.124;37.910;2022-12-10T06:01:08;99818.09;;;-3.82;80.04
67517;BME280;54359;59.124;37.910;2022-12-10T06:03:34;99818.09;;;-3.82;80.20
67517;BME280;54359;59.124;37.910;2022-12-10T06:06:02;99804.97;;;-3.92;80.07
67517;BME280;54359;59.124;37.910;2022-12-10T06:08:28;99803.59;;;-3.87;80.34
67517;BME280;54359;59.124;37.910;2022-12-10T06:10:54;99791.34;;;-3.95;80.23
67517;BME280;54359;59.124;37.910;2022-12-10T06:13:23;99798.59;;;-3.87;80.60
67517;BME280;54359;59.124;37.910;2022-12-10T06:15:49;99790.47;;;-3.96;80.43
67517;BME280;54359;59.124;37.910;2022-12-10T06:18:15;99809.31;;;-3.89;80.93
67517;BME280;54359;59.124;37.910;2022-12-10T06:20:41;99810.97;;;-3.90;80.88
67517;BME280;54359;59.124;37.910;2022-12-10T06:23:07;99807.88;;;-3.86;80.14
67517;BME280;54359;59.124;37.910;2022-12-10T06:25:37;99801.31;;;-3.83;80.27
67517;BME280;54359;59.124;37.910;2022-12-10T06:28:03;99808.84;;;-3.83;79.90
67517;BME280;54359;59.124;37.910;2022-12-10T06:30:29;99804.78;;;-3.81;80.65
67517;BME280;54359;59.124;37.910;2022-12-10T06:32:55;99810.84;;;-3.78;80.37
67517;BME280;54359;59.124;37.910;2022-12-10T06:35:21;99811.81;;;-3.76;80.03
67517;BME280;54359;59.124;37.910;2022-12-10T06:37:49;99818.72;;;-3.73;80.69
67517;BME280;54359;59.124;37.910;2022-12-10T06:40:16;99810.28;;;-3.74;79.86
67517;BME280;54359;59.124;37.910;2022-12-10T06:42:42;99811.16;;;-3.73;80.58
67517;BME280;54359;59.124;37.910;2022-12-10T06:45:08;99808.09;;;-3.69;80.24
67517;BME280;54359;59.124;37.910;2022-12-10T06:47:34;99807.97;;;-3.71;80.29
67517;BME280;54359;59.124;37.910;2022-12-10T06:50:00;99807.59;;;-3.64;80.38
67517;BME280;54359;59.124;37.910;2022-12-10T06:52:26;99806.44;;;-3.69;80.85
67517;BME280;54359;59.124;37.910;2022-12-10T06:54:52;99808.47;;;-3.63;80.49
67517;BME280;54359;59.124;37.910;2022-12-10T06:57:21;99807.69;;;-3.62;80.26
67517;BME280;54359;59.124;37.910;2022-12-10T06:59:47;99803.63;;;-3.60;81.12
67517;BME280;54359;59.124;37.910;2022-12-10T07:02:13;99797.75;;;-3.60;80.44
67517;BME280;54359;59.124;37.910;2022-12-10T07:04:38;99804.72;;;-3.56;80.73
67517;BME280;54359;59.124;37.910;2022-12-10T07:07:05;99814.28;;;-3.51;80.79
67517;BME280;54359;59.124;37.910;2022-12-10T07:09:32;99804.72;;;-3.56;80.50
67517;BME280;54359;59.124;37.910;2022-12-10T07:11:58;99816.88;;;-3.49;80.11
67517;BME280;54359;59.124;37.910;2022-12-10T07:14:24;99814.28;;;-3.51;80.56
67517;BME280;54359;59.124;37.910;2022-12-10T07:16:50;99817.84;;;-3.47;80.22
67517;BME280;54359;59.124;37.910;2022-12-10T07:19:16;99811.09;;;-3.48;80.85
67517;BME280;54359;59.124;37.910;2022-12-10T07:21:43;99822.59;;;-3.38;80.25
67517;BME280;54359;59.124;37.910;2022-12-10T07:24:13;99814.09;;;-3.40;79.96
67517;BME280;54359;59.124;37.910;2022-12-10T07:26:41;99826.94;;;-3.36;80.19
67517;BME280;54359;59.124;37.910;2022-12-10T07:29:13;99813.50;;;-3.36;80.69
67517;BME280;54359;59.124;37.910;2022-12-10T07:31:40;99825.94;;;-3.25;80.89
67517;BME280;54359;59.124;37.910;2022-12-10T07:34:06;99825.56;;;-3.17;80.23
67517;BME280;54359;59.124;37.910;2022-12-10T07:36:32;99811.25;;;-3.18;79.97
67517;BME280;54359;59.124;37.910;2022-12-10T07:38:59;99823.25;;;-3.01;80.17
67517;BME280;54359;59.124;37.910;2022-12-10T07:41:25;99819.44;;;-2.94;80.48
67517;BME280;54359;59.124;37.910;2022-12-10T07:43:51;99811.41;;;-2.89;81.00
67517;BME280;54359;59.124;37.910;2022-12-10T07:46:21;99811.88;;;-2.81;80.65
67517;BME280;54359;59.124;37.910;2022-12-10T07:48:48;99819.00;;;-2.74;80.82
67517;BME280;54359;59.124;37.910;2022-12-10T07:51:14;99816.97;;;-2.66;81.08
67517;BME280;54359;59.124;37.910;2022-12-10T07:53:42;99828.38;;;-2.58;80.79
67517;BME280;54359;59.124;37.910;2022-12-10T07:56:08;99820.81;;;-2.58;80.01
67517;BME280;54359;59.124;37.910;2022-12-10T07:58:34;99802.34;;;-2.58;79.97
67517;BME280;54359;59.124;37.910;2022-12-10T08:01:12;99816.50;;;-2.46;80.67
67517;BME280;54359;59.124;37.910;2022-12-10T08:03:39;99818.59;;;-2.38;80.51
67517;BME280;54359;59.124;37.910;2022-12-10T08:06:11;99819.84;;;-2.32;80.76
67517;BME280;54359;59.124;37.910;2022-12-10T08:08:39;99814.97;;;-2.29;80.41
67517;BME280;54359;59.124;37.910;2022-12-10T08:11:05;99818.47;;;-2.12;80.08
67517;BME280;54359;59.124;37.910;2022-12-10T08:13:32;99814.69;;;-2.05;80.02
67517;BME280;54359;59.124;37.910;2022-12-10T08:16:19;99823.09;;;-2.05;80.25
67517;BME280;54359;59.124;37.910;2022-12-10T08:18:46;99808.50;;;-2.10;80.32
67517;BME280;54359;59.124;37.910;2022-12-10T08:21:18;99823.88;;;-2.06;80.69
67517;BME280;54359;59.124;37.910;2022-12-10T08:23:44;99807.53;;;-2.12;80.30
67517;BME280;54359;59.124;37.910;2022-12-10T08:26:13;99825.53;;;-2.06;80.49
67517;BME280;54359;59.124;37.910;2022-12-10T08:28:40;99826.84;;;-1.98;80.17
67517;BME280;54359;59.124;37.910;2022-12-10T08:31:08;99821.66;;;-1.86;80.06
67517;BME280;54359;59.124;37.910;2022-12-10T08:33:36;99828.59;;;-1.82;79.89
67517;BME280;54359;59.124;37.910;2022-12-10T08:36:04;99811.38;;;-1.89;79.84
67517;BME280;54359;59.124;37.910;2022-12-10T08:38:32;99814.34;;;-1.96;80.19
67517;BME280;54359;59.124;37.910;2022-12-10T08:41:08;99819.19;;;-1.99;79.55
67517;BME280;54359;59.124;37.910;2022-12-10T08:43:35;99813.63;;;-2.09;79.12
67517;BME280;54359;59.124;37.910;2022-12-10T08:46:02;99819.38;;;-2.11;79.91
67517;BME280;54359;59.124;37.910;2022-12-10T08:48:28;99818.81;;;-2.20;79.52
67517;BME280;54359;59.124;37.910;2022-12-10T08:50:56;99827.06;;;-2.23;79.42
67517;BME280;54359;59.124;37.910;2022-12-10T08:53:22;99814.81;;;-2.32;79.35
67517;BME280;54359;59.124;37.910;2022-12-10T08:55:51;99826.94;;;-2.39;79.84
67517;BME280;54359;59.124;37.910;2022-12-10T08:58:18;99833.94;;;-2.49;79.38
67517;BME280;54359;59.124;37.910;2022-12-10T09:00:44;99804.75;;;-2.60;79.80
67517;BME280;54359;59.124;37.910;2022-12-10T09:03:10;99817.13;;;-2.63;79.38
67517;BME280;54359;59.124;37.910;2022-12-10T09:05:36;99816.09;;;-2.67;79.86
67517;BME280;54359;59.124;37.910;2022-12-10T09:08:02;99807.22;;;-2.75;79.70
67517;BME280;54359;59.124;37.910;2022-12-10T09:10:29;99819.00;;;-2.74;80.38
67517;BME280;54359;59.124;37.910;2022-12-10T09:12:54;99820.84;;;-2.71;79.55
67517;BME280;54359;59.124;37.910;2022-12-10T09:15:20;99826.66;;;-2.72;80.18
67517;BME280;54359;59.124;37.910;2022-12-10T09:17:46;99819.13;;;-2.72;79.80
67517;BME280;54359;59.124;37.910;2022-12-10T09:20:12;99828.16;;;-2.61;79.32
67517;BME280;54359;59.124;37.910;2022-12-10T09:22:38;99824.63;;;-2.65;79.68
67517;BME280;54359;59.124;37.910;2022-12-10T09:25:06;99824.78;;;-2.61;79.92
67517;BME280;54359;59.124;37.910;2022-12-10T09:27:32;99828.38;;;-2.58;80.29
67517;BME280;54359;59.124;37.910;2022-12-10T09:29:58;99827.66;;;-2.55;79.41
67517;BME280;54359;59.124;37.910;2022-12-10T09:32:24;99820.81;;;-2.58;79.98
67517;BME280;54359;59.124;37.910;2022-12-10T09:34:51;99811.63;;;-2.57;80.17
67517;BME280;54359;59.124;37.910;2022-12-10T09:37:17;99825.03;;;-2.44;80.15
67517;BME280;54359;59.124;37.910;2022-12-10T09:39:43;99818.53;;;-2.40;79.57
67517;BME280;54359;59.124;37.910;2022-12-10T09:50:33;99826.28;;;-2.22;79.50
67517;BME280;54359;59.124;37.910;2022-12-10T09:53:02;99819.97;;;-2.15;80.18
67517;BME280;54359;59.124;37.910;2022-12-10T09:55:39;99825.16;;;-2.12;79.76
67517;BME280;54359;59.124;37.910;2022-12-10T09:58:17;99822.84;;;-2.09;79.68
67517;BME280;54359;59.124;37.910;2022-12-10T10:00:47;99827.28;;;-2.05;79.28
67517;BME280;54359;59.124;37.910;2022-12-10T10:03:15;99819.72;;;-2.05;79.42
67517;BME280;54359;59.124;37.910;2022-12-10T10:08:34;99826.22;;;-1.94;79.64
67517;BME280;54359;59.124;37.910;2022-12-10T10:11:03;99834.59;;;-1.95;79.22
67517;BME280;54359;59.124;37.910;2022-12-10T10:13:41;99831.13;;;-1.97;79.29
67517;BME280;54359;59.124;37.910;2022-12-10T10:18:58;99823.63;;;-1.95;79.42
67517;BME280;54359;59.124;37.910;2022-12-10T10:21:35;99835.00;;;-1.87;79.79
67517;BME280;54359;59.124;37.910;2022-12-10T10:24:03;99840.94;;;-1.87;79.56
67517;BME280;54359;59.124;37.910;2022-12-10T10:26:29;99831.19;;;-1.95;79.64
67517;BME280;54359;59.124;37.910;2022-12-10T10:29:08;99830.91;;;-2.00;79.59
67517;BME280;54359;59.124;37.910;2022-12-10T10:31:35;99839.34;;;-1.99;79.40
67517;BME280;54359;59.124;37.910;2022-12-10T10:34:06;99850.91;;;-2.03;79.37
67517;BME280;54359;59.124;37.910;2022-12-10T10:36:38;99837.97;;;-2.09;79.22
67517;BME280;54359;59.124;37.910;2022-12-10T10:39:31;99842.78;;;-2.12;79.54
67517;BME280;54359;59.124;37.910;2022-12-10T10:41:59;99831.41;;;-2.20;79.90
67517;BME280;54359;59.124;37.910;2022-12-10T10:44:37;99832.47;;;-2.17;79.04
67517;BME280;54359;59.124;37.910;2022-12-10T10:47:34;99836.63;;;-2.17;79.58
67517;BME280;54359;59.124;37.910;2022-12-10T10:50:05;99827.66;;;-2.27;79.75
67517;BME280;54359;59.124;37.910;2022-12-10T10:52:37;99844.00;;;-2.20;79.33
67517;BME280;54359;59.124;37.910;2022-12-10T10:55:04;99842.34;;;-2.20;79.64
67517;BME280;54359;59.124;37.910;2022-12-10T10:57:36;99842.28;;;-2.21;79.66
67517;BME280;54359;59.124;37.910;2022-12-10T11:00:17;99840.53;;;-2.23;79.55
67517;BME280;54359;59.124;37.910;2022-12-10T11:02:44;99839.66;;;-2.23;79.53
67517;BME280;54359;59.124;37.910;2022-12-10T11:05:23;99841.22;;;-2.25;79.35
67517;BME280;54359;59.124;37.910;2022-12-10T11:08:00;99847.91;;;-2.26;79.60
67517;BME280;54359;59.124;37.910;2022-12-10T11:10:27;99842.78;;;-2.27;79.56
67517;BME280;54359;59.124;37.910;2022-12-10T11:13:05;99839.19;;;-2.31;79.16
67517;BME280;54359;59.124;37.910;2022-12-10T11:15:34;99829.56;;;-2.38;79.46
67517;BME280;54359;59.124;37.910;2022-12-10T11:18:03;99829.56;;;-2.38;79.09
67517;BME280;54359;59.124;37.910;2022-12-10T11:21:00;99840.75;;;-2.33;79.39
67517;BME280;54359;59.124;37.910;2022-12-10T11:23:36;99842.22;;;-2.36;79.38
67517;BME280;54359;59.124;37.910;2022-12-10T11:31:27;99847.94;;;-2.39;79.95
67517;BME280;54359;59.124;37.910;2022-12-10T11:34:20;99835.78;;;-2.46;79.45
67517;BME280;54359;59.124;37.910;2022-12-10T11:50:19;99832.44;;;-2.60;78.75
67517;BME280;54359;59.124;37.910;2022-12-10T11:53:12;99846.94;;;-2.56;79.22
67517;BME280;54359;59.124;37.910;2022-12-10T11:59:03;99843.38;;;-2.59;79.13
67517;BME280;54359;59.124;37.910;2022-12-10T12:07:36;99849.94;;;-2.61;79.13
67517;BME280;54359;59.124;37.910;2022-12-10T12:10:23;99851.41;;;-2.65;78.80
67517;BME280;54359;59.124;37.910;2022-12-10T12:13:12;99848.59;;;-2.70;79.17
67517;BME280;54359;59.124;37.910;2022-12-10T12:16:06;99847.38;;;-2.76;78.64
67517;BME280;54359;59.124;37.910;2022-12-10T12:19:00;99855.09;;;-2.73;79.17
67517;BME280;54359;59.124;37.910;2022-12-10T12:21:27;99856.75;;;-2.74;78.96
67517;BME280;54359;59.124;37.910;2022-12-10T12:26:35;99856.47;;;-2.78;79.00
67517;BME280;54359;59.124;37.910;2022-12-10T12:29:34;99846.72;;;-2.87;79.15
67517;BME280;54359;59.124;37.910;2022-12-10T12:32:05;99847.59;;;-2.87;78.78
67517;BME280;54359;59.124;37.910;2022-12-10T12:34:51;99848.28;;;-2.89;79.38
67517;BME280;54359;59.124;37.910;2022-12-10T12:37:23;99852.50;;;-2.88;78.78
67517;BME280;54359;59.124;37.910;2022-12-10T12:40:15;99861.63;;;-2.90;79.42
67517;BME280;54359;59.124;37.910;2022-12-10T12:42:55;99864.03;;;-2.92;79.38
67517;BME280;54359;59.124;37.910;2022-12-10T12:45:36;99847.91;;;-2.95;79.34
67517;BME280;54359;59.124;37.910;2022-12-10T12:51:09;99855.13;;;-3.00;78.68
67517;BME280;54359;59.124;37.910;2022-12-10T12:53:36;99859.31;;;-3.00;79.53
67517;BME280;54359;59.124;37.910;2022-12-10T13:03:59;99863.00;;;-2.95;79.51
67517;BME280;54359;59.124;37.910;2022-12-10T13:06:28;99857.00;;;-2.97;79.45
67517;BME280;54359;59.124;37.910;2022-12-10T13:09:01;99857.84;;;-2.97;79.78
67517;BME280;54359;59.124;37.910;2022-12-10T13:14:32;99856.63;;;-3.04;79.17
67517;BME280;54359;59.124;37.910;2022-12-10T13:17:01;99855.53;;;-3.07;78.98
67517;BME280;54359;59.124;37.910;2022-12-10T13:19:29;99853.72;;;-3.10;78.78
67517;BME280;54359;59.124;37.910;2022-12-10T13:22:09;99867.84;;;-3.12;79.35
67517;BME280;54359;59.124;37.910;2022-12-10T13:32:20;99859.31;;;-3.27;78.93
67517;BME280;54359;59.124;37.910;2022-12-10T13:40:39;99866.09;;;-3.26;78.99
67517;BME280;54359;59.124;37.910;2022-12-10T13:46:50;99866.66;;;-3.30;79.57
67517;BME280;54359;59.124;37.910;2022-12-10T13:49:19;99847.72;;;-3.38;79.71
67517;BME280;54359;59.124;37.910;2022-12-10T13:51:54;99873.53;;;-3.28;78.50
67517;BME280;54359;59.124;37.910;2022-12-10T13:57:43;99861.72;;;-3.29;79.15
67517;BME280;54359;59.124;37.910;2022-12-10T14:00:17;99858.25;;;-3.31;78.83
67517;BME280;54359;59.124;37.910;2022-12-10T14:02:52;99854.97;;;-3.30;79.42
67517;BME280;54359;59.124;37.910;2022-12-10T14:07:49;99860.69;;;-3.32;79.29
67517;BME280;54359;59.124;37.910;2022-12-10T14:10:18;99866.09;;;-3.26;79.20
67517;BME280;54359;59.124;37.910;2022-12-10T14:12:48;99875.25;;;-3.27;79.69
67517;BME280;54359;59.124;37.910;2022-12-10T14:15:23;99875.56;;;-3.22;79.16
67517;BME280;54359;59.124;37.910;2022-12-10T14:17:52;99855.06;;;-3.28;79.59
67517;BME280;54359;59.124;37.910;2022-12-10T14:20:23;99869.66;;;-3.22;78.83
67517;BME280;54359;59.124;37.910;2022-12-10T14:22:54;99850.31;;;-3.37;80.07
67517;BME280;54359;59.124;37.910;2022-12-10T14:25:45;99878.16;;;-3.20;79.25
67517;BME280;54359;59.124;37.910;2022-12-10T14:28:16;99874.69;;;-3.22;79.55
67517;BME280;54359;59.124;37.910;2022-12-10T14:30:45;99880.59;;;-3.22;79.68
67517;BME280;54359;59.124;37.910;2022-12-10T14:33:15;99881.56;;;-3.20;79.80
67517;BME280;54359;59.124;37.910;2022-12-10T14:35:41;99880.66;;;-3.20;79.48
67517;BME280;54359;59.124;37.910;2022-12-10T14:41:17;99884.25;;;-3.17;79.17
67517;BME280;54359;59.124;37.910;2022-12-10T14:43:44;99875.63;;;-3.20;79.13
67517;BME280;54359;59.124;37.910;2022-12-10T14:46:16;99881.63;;;-3.18;79.48